Time;durP1;ratioP1;P1;durP2;ratioP2;P2;SDS_P1;SDS_P2;PMS_P1;PMS_P2;Temp;Humidity;BMP_temperature;BMP_pressure;BME280_temperature;BME280_humidity;BME280_pressure;Samples;Min_cycle;Max_cycle;Signal;HPM_P1;HPM_P2
2022/12/17 13:10:44;;;;;;;45.90;23.17;;;;;;;-144.32;100.00;68061.97;10345192;28;20055;-81
2022/12/17 13:16:00;;;;;;;52.72;24.17;;;;;;;-144.32;100.00;68061.97;10326309;28;20038;-81
2022/12/17 13:21:23;;;;;;;51.38;24.02;;;;;;;-144.32;100.00;68061.97;10313868;28;20057;-83
2022/12/17 13:26:41;;;;;;;48.15;24.10;;;;;;;-144.32;100.00;68061.97;10353876;28;20046;-83
2022/12/17 13:32:02;;;;;;;43.95;22.58;;;;;;;-144.32;100.00;68061.97;10321002;28;20085;-83
2022/12/17 13:37:14;;;;;;;49.53;22.25;;;;;;;-144.32;100.00;68061.97;10364476;28;20053;-80
2022/12/17 13:42:19;;;;;;;51.35;22.65;;;;;;;-144.32;100.00;68061.97;10338945;28;20069;-79
2022/12/17 13:47:26;;;;;;;50.33;24.42;;;;;;;-144.32;100.00;68061.97;10325656;28;20042;-83
2022/12/17 13:52:28;;;;;;;45.08;21.90;;;;;;;-144.32;100.00;68061.97;10295572;28;20066;-81
2022/12/17 13:57:30;;;;;;;47.22;22.98;;;;;;;-144.32;100.00;68061.97;10316615;28;20058;-81
2022/12/17 14:02:37;;;;;;;52.47;24.05;;;;;;;-144.32;100.00;68061.97;10310633;28;20037;-82
2022/12/17 14:07:38;;;;;;;43.92;23.23;;;;;;;-144.32;100.00;68061.97;10298483;28;20383;-82
2022/12/17 14:12:39;;;;;;;47.45;21.08;;;;;;;-144.32;100.00;68061.97;10306084;28;20134;-78
2022/12/17 14:17:49;;;;;;;45.17;23.10;;;;;;;-144.32;100.00;68061.97;10317016;28;20054;-80
2022/12/17 14:22:58;;;;;;;49.30;24.52;;;;;;;-144.32;100.00;68061.97;10304557;28;20111;-82
2022/12/17 14:27:59;;;;;;;49.28;24.90;;;;;;;-144.32;100.00;68061.97;10318538;28;20047;-82
2022/12/17 14:33:00;;;;;;;62.50;28.70;;;;;;;-144.32;100.00;68061.97;10330216;28;20055;-82
2022/12/17 14:38:02;;;;;;;55.33;26.08;;;;;;;-144.32;100.00;68061.97;10326711;28;20058;-83
2022/12/17 14:43:05;;;;;;;52.88;27.02;;;;;;;-144.32;100.00;68061.97;10310600;28;20050;-85
2022/12/17 14:48:14;;;;;;;49.70;26.25;;;;;;;-144.32;100.00;68061.97;10318665;28;20077;-84
2022/12/17 14:53:24;;;;;;;45.00;23.77;;;;;;;-144.32;100.00;68061.97;10298411;28;20101;-81
2022/12/17 14:58:26;;;;;;;45.45;25.13;;;;;;;-144.32;100.00;68061.97;10298795;28;20506;-80
2022/12/17 15:03:30;;;;;;;60.05;27.95;;;;;;;-144.32;100.00;68061.97;10296547;28;20609;-79
2022/12/17 15:08:38;;;;;;;48.58;25.17;;;;;;;-144.32;100.00;68061.97;10296110;28;20057;-79
2022/12/17 15:13:39;;;;;;;55.65;27.10;;;;;;;-144.32;100.00;68061.97;10321362;28;20069;-79
2022/12/17 15:18:40;;;;;;;51.80;26.20;;;;;;;-144.32;100.00;68061.97;10310340;28;20443;-78
2022/12/17 15:23:43;;;;;;;57.47;26.88;;;;;;;-144.32;100.00;68061.97;10309365;28;20047;-80
2022/12/17 15:28:44;;;;;;;58.20;28.45;;;;;;;-144.32;100.00;68061.97;10331413;28;20058;-79
2022/12/17 15:33:45;;;;;;;58.38;28.83;;;;;;;-144.32;100.00;68061.97;10311531;28;20057;-78
2022/12/17 15:38:45;;;;;;;51.95;26.77;;;;;;;-144.32;100.00;68061.97;10344326;28;20046;-77
2022/12/17 15:43:46;;;;;;;61.80;29.23;;;;;;;-144.32;100.00;68061.97;10354954;28;20057;-78
2022/12/17 15:48:47;;;;;;;53.35;27.10;;;;;;;-144.32;100.00;68061.97;10329327;28;20097;-81
2022/12/17 15:53:47;;;;;;;68.32;32.22;;;;;;;-144.32;100.00;68061.97;10312857;28;20038;-79
2022/12/17 15:58:48;;;;;;;59.15;28.08;;;;;;;-144.32;100.00;68061.97;10317970;28;20035;-79
2022/12/17 16:03:51;;;;;;;64.18;29.33;;;;;;;-144.32;100.00;68061.97;10327682;28;20046;-81
2022/12/17 16:08:52;;;;;;;67.07;31.70;;;;;;;-144.32;100.00;68061.97;10309007;28;20502;-82
2022/12/17 16:13:54;;;;;;;58.35;28.35;;;;;;;-144.32;100.00;68061.97;10303812;28;20057;-81
2022/12/17 16:18:54;;;;;;;73.65;33.35;;;;;;;-144.32;100.00;68061.97;10304021;28;20086;-81
2022/12/17 16:23:55;;;;;;;62.25;29.95;;;;;;;-144.32;100.00;68061.97;10315004;28;20061;-79
2022/12/17 16:28:56;;;;;;;65.28;30.05;;;;;;;-144.32;100.00;68061.97;10321043;28;20825;-79
2022/12/17 16:33:57;;;;;;;67.55;30.55;;;;;;;-144.32;100.00;68061.97;10304935;28;20046;-81
2022/12/17 16:38:57;;;;;;;72.22;31.27;;;;;;;-144.32;100.00;68061.97;10309864;28;20055;-78
2022/12/17 16:43:59;;;;;;;68.65;31.42;;;;;;;-144.32;100.00;68061.97;10331018;28;20046;-78
2022/12/17 16:49:04;;;;;;;72.30;32.73;;;;;;;-144.32;100.00;68061.97;10339102;28;20049;-81
2022/12/17 16:54:07;;;;;;;64.00;31.05;;;;;;;-144.32;100.00;68061.97;10314011;28;20078;-80
2022/12/17 16:59:08;;;;;;;72.25;31.50;;;;;;;-144.32;100.00;68061.97;10302486;28;20505;-80
2022/12/17 17:04:10;;;;;;;81.15;33.33;;;;;;;-144.32;100.00;68061.97;10299126;28;20050;-79
2022/12/17 17:09:11;;;;;;;75.95;35.03;;;;;;;-144.32;100.00;68061.97;10308375;28;20046;-80
2022/12/17 17:14:13;;;;;;;70.75;31.27;;;;;;;-144.32;100.00;68061.97;10307574;28;20402;-82
2022/12/17 17:19:14;;;;;;;70.68;32.55;;;;;;;-144.32;100.00;68061.97;10305590;28;20042;-80
2022/12/17 17:24:16;;;;;;;69.20;32.13;;;;;;;-144.32;100.00;68061.97;10298331;28;20066;-78
2022/12/17 17:29:17;;;;;;;73.40;33.17;;;;;;;-144.32;100.00;68061.97;10317509;28;20050;-79
2022/12/17 17:34:19;;;;;;;66.75;33.30;;;;;;;-144.32;100.00;68061.97;10345764;28;20051;-79
2022/12/17 17:39:19;;;;;;;78.35;32.70;;;;;;;-144.32;100.00;68061.97;10304985;28;20050;-80
2022/12/17 17:44:20;;;;;;;75.95;32.47;;;;;;;-144.32;100.00;68061.97;10304193;28;20057;-80
2022/12/17 17:49:21;;;;;;;74.18;34.55;;;;;;;-144.32;100.00;68061.97;10294094;28;20468;-80
2022/12/17 17:54:21;;;;;;;78.93;36.97;;;;;;;-144.32;100.00;68061.97;10311280;28;20043;-78
2022/12/17 17:59:22;;;;;;;86.53;38.33;;;;;;;-144.32;100.00;68061.97;10304987;28;20051;-78
2022/12/17 18:04:23;;;;;;;80.38;38.47;;;;;;;-144.32;100.00;68061.97;10308302;28;20031;-79
2022/12/17 18:09:23;;;;;;;83.38;37.60;;;;;;;-144.32;100.00;68061.97;10307993;28;20085;-81
2022/12/17 18:14:24;;;;;;;88.43;39.97;;;;;;;-144.32;100.00;68061.97;10339680;28;20038;-77
2022/12/17 18:19:24;;;;;;;100.18;40.47;;;;;;;-144.32;100.00;68061.97;10361845;28;20026;-78
2022/12/17 18:24:25;;;;;;;93.05;41.22;;;;;;;-144.32;100.00;68061.97;10337338;28;20042;-79
2022/12/17 18:29:27;;;;;;;77.95;37.05;;;;;;;-144.32;100.00;68061.97;10331358;28;20039;-78
2022/12/17 18:34:28;;;;;;;83.53;38.00;;;;;;;-144.32;100.00;68061.97;10299891;28;20177;-78
2022/12/17 18:39:28;;;;;;;77.57;38.92;;;;;;;-144.32;100.00;68061.97;10317647;28;20835;-79
2022/12/17 18:44:31;;;;;;;84.10;36.28;;;;;;;-144.32;100.00;68061.97;10301725;28;20483;-80
2022/12/17 18:49:31;;;;;;;81.13;36.63;;;;;;;-144.32;100.00;68061.97;10280317;28;20089;-81
2022/12/17 18:54:33;;;;;;;81.20;35.58;;;;;;;-144.32;100.00;68061.97;10300272;28;20047;-82
2022/12/17 18:59:37;;;;;;;88.97;35.75;;;;;;;-144.32;100.00;68061.97;10317253;28;20065;-79
2022/12/17 19:04:41;;;;;;;88.60;40.05;;;;;;;-144.32;100.00;68061.97;10302177;28;20046;-78
2022/12/17 19:09:41;;;;;;;91.55;41.83;;;;;;;-144.32;100.00;68061.97;10309559;28;20569;-79
2022/12/17 19:14:42;;;;;;;108.97;44.40;;;;;;;-144.32;100.00;68061.97;10321039;28;20478;-83
2022/12/17 19:19:42;;;;;;;88.07;35.75;;;;;;;-144.32;100.00;68061.97;10294116;28;20042;-80
2022/12/17 19:24:43;;;;;;;88.45;40.70;;;;;;;-144.32;100.00;68061.97;10310599;28;20051;-79
2022/12/17 19:29:44;;;;;;;88.95;40.40;;;;;;;-144.32;100.00;68061.97;10304362;28;20049;-81
2022/12/17 19:34:45;;;;;;;90.63;38.90;;;;;;;-144.32;100.00;68061.97;10299329;28;20060;-80
2022/12/17 19:39:46;;;;;;;88.93;41.03;;;;;;;-144.32;100.00;68061.97;10309253;28;20498;-79
2022/12/17 19:44:47;;;;;;;82.10;37.70;;;;;;;-144.32;100.00;68061.97;10334946;28;20042;-76
2022/12/17 19:49:49;;;;;;;93.65;39.38;;;;;;;-144.32;100.00;68061.97;10338055;28;20398;-81
2022/12/17 19:54:50;;;;;;;81.65;36.20;;;;;;;-144.32;100.00;68061.97;10319481;28;20035;-78
2022/12/17 19:59:52;;;;;;;90.22;39.33;;;;;;;-144.32;100.00;68061.97;10320747;28;20053;-79
2022/12/17 20:04:54;;;;;;;92.72;42.72;;;;;;;-144.32;100.00;68061.97;10315170;28;20046;-80
2022/12/17 20:09:55;;;;;;;86.70;40.03;;;;;;;-144.32;100.00;68061.97;10317554;28;20050;-78
2022/12/17 20:14:56;;;;;;;79.25;36.60;;;;;;;-144.32;100.00;68061.97;10346588;28;20130;-81
2022/12/17 20:19:57;;;;;;;86.80;36.70;;;;;;;-144.32;100.00;68061.97;10318852;28;20046;-82
2022/12/17 20:25:00;;;;;;;82.57;37.45;;;;;;;-144.32;100.00;68061.97;10314825;28;20495;-80
2022/12/17 20:30:00;;;;;;;98.22;42.33;;;;;;;-144.32;100.00;68061.97;10341679;28;20023;-78
2022/12/17 20:35:01;;;;;;;80.72;33.63;;;;;;;-144.32;100.00;68061.97;10347982;28;20137;-78
2022/12/17 20:40:01;;;;;;;73.05;34.40;;;;;;;-144.32;100.00;68061.97;10326247;28;20098;-80
2022/12/17 20:45:02;;;;;;;76.55;32.15;;;;;;;-144.32;100.00;68061.97;10353262;28;20018;-79
2022/12/17 20:50:03;;;;;;;94.45;37.65;;;;;;;-144.32;100.00;68061.97;10358732;28;20082;-77
2022/12/17 20:55:04;;;;;;;78.03;35.40;;;;;;;-144.32;100.00;68061.97;10334341;28;20375;-79
2022/12/17 21:00:06;;;;;;;102.55;40.22;;;;;;;-144.32;100.00;68061.97;10309311;28;20700;-80
2022/12/17 21:05:06;;;;;;;96.28;40.67;;;;;;;-144.32;100.00;68061.97;10345406;28;20043;-80
2022/12/17 21:10:07;;;;;;;91.65;39.97;;;;;;;-144.32;100.00;68061.97;10327141;28;20042;-82
2022/12/17 21:15:08;;;;;;;87.60;38.58;;;;;;;-144.32;100.00;68061.97;10314429;28;20047;-81
2022/12/17 21:20:09;;;;;;;88.32;36.90;;;;;;;-144.32;100.00;68061.97;10318030;28;20592;-81
2022/12/17 21:25:09;;;;;;;91.88;38.47;;;;;;;-144.32;100.00;68061.97;10312671;28;20050;-81
2022/12/17 21:30:12;;;;;;;;;;;;;;;-144.32;100.00;68061.97;10319386;28;20045;-79
2022/12/17 21:35:14;;;;;;;85.05;37.92;;;;;;;-144.32;100.00;68061.97;10321458;28;19922;-81
2022/12/17 21:40:15;;;;;;;89.53;40.63;;;;;;;-144.32;100.00;68061.97;10320838;28;20039;-83
2022/12/17 21:45:16;;;;;;;82.97;39.40;;;;;;;-144.32;100.00;68061.97;10315713;28;20129;-80
2022/12/17 21:50:17;;;;;;;91.22;39.15;;;;;;;-144.32;100.00;68061.97;10329401;28;20104;-79
2022/12/17 21:55:17;;;;;;;85.95;38.67;;;;;;;-144.32;100.00;68061.97;10314452;28;20035;-80
2022/12/17 22:00:18;;;;;;;87.78;37.15;;;;;;;-144.32;100.00;68061.97;10302542;28;20047;-79
2022/12/17 22:05:19;;;;;;;90.15;38.53;;;;;;;-144.32;100.00;68061.97;10299734;28;20038;-78
2022/12/17 22:10:20;;;;;;;81.70;39.03;;;;;;;-144.32;100.00;68061.97;10295199;28;20050;-77
2022/12/17 22:15:21;;;;;;;83.95;39.45;;;;;;;-144.32;100.00;68061.97;10305417;28;20046;-77
2022/12/17 22:20:22;;;;;;;84.22;38.53;;;;;;;-144.32;100.00;68061.97;10292059;28;20062;-77
2022/12/17 22:25:23;;;;;;;75.80;34.42;;;;;;;-144.32;100.00;68061.97;10308081;28;20035;-76
2022/12/17 22:35:45;;;;;;;81.72;35.67;;;;;;;-144.32;100.00;68061.97;10341982;28;20147;-79
2022/12/17 22:40:45;;;;;;;74.22;34.42;;;;;;;-144.32;100.00;68061.97;10313303;28;20057;-79
2022/12/17 22:45:46;;;;;;;77.65;34.55;;;;;;;-144.32;100.00;68061.97;10301971;28;20050;-82
2022/12/17 22:50:46;;;;;;;77.07;35.05;;;;;;;-144.32;100.00;68061.97;10319603;28;20590;-78
2022/12/17 22:55:47;;;;;;;75.45;34.63;;;;;;;-144.32;100.00;68061.97;10328457;28;20407;-80
2022/12/17 23:00:48;;;;;;;83.38;35.30;;;;;;;-144.32;100.00;68061.97;10338848;28;20039;-77
2022/12/17 23:05:49;;;;;;;78.57;34.15;;;;;;;-144.32;100.00;68061.97;10361687;28;20043;-77
2022/12/17 23:10:49;;;;;;;81.40;37.00;;;;;;;-144.32;100.00;68061.97;10349827;28;20026;-77
2022/12/17 23:15:51;;;;;;;75.50;34.30;;;;;;;-144.32;100.00;68061.97;10365166;28;20023;-78
2022/12/17 23:20:53;;;;;;;85.72;34.40;;;;;;;-144.32;100.00;68061.97;10341378;28;20054;-78
2022/12/17 23:25:53;;;;;;;84.05;33.83;;;;;;;-144.32;100.00;68061.97;10310997;28;20069;-78
2022/12/17 23:30:54;;;;;;;80.50;35.30;;;;;;;-144.32;100.00;68061.97;10316841;28;20042;-79
2022/12/17 23:36:13;;;;;;;82.43;34.85;;;;;;;-144.32;100.00;68061.97;10298111;28;20117;-78
2022/12/17 23:41:16;;;;;;;72.05;31.88;;;;;;;-144.32;100.00;68061.97;10312989;28;20047;-79
2022/12/17 23:46:17;;;;;;;76.20;32.50;;;;;;;-144.32;100.00;68061.97;10302742;28;20050;-78
2022/12/17 23:51:21;;;;;;;73.73;33.03;;;;;;;-144.32;100.00;68061.97;10297729;28;20053;-76
2022/12/17 23:56:26;;;;;;;66.97;30.52;;;;;;;-144.32;100.00;68061.97;10302314;28;20077;-78
